Chronik & Geschichte

Boeing Stearman am Flugplatz Konstanz

Mit seiner 107-jährigen Geschichte ist Konstanz der älteste Verkehrslandeplatz Deutschlands. Lesen Sie unsere Festschrift zum 100-jährigen Platzjubiläum oder entdecken Sie die ausführliche Flugplatzchronik auf der Website der Initiative PRO Flugplatz Konstanz.

Live am Platz

Die Bilder unserer Webcams werden alle 5 Minuten aktualisiert.

Sonnenaufgang:

03:31 UTC / 05:31 Lokal

Sonnenuntergang:

19:09 UTC / 21:09 Lokal

METAR (26.05.2020 19:20 UTC):

EDNY 262020Z AUTO 01005KT 9999 // NCD 13/05 Q1033
VFR

TAF (26.05.2020 16:00 UTC):

TAF EDNY 261700Z 2618/2718 04006KT CAVOK BECMG 2708/2710 04011KT

Alle Angaben unverbindlich und ohne Gewähr. Zeiten genähert.

Für den Verkehrslandeplatz Konstanz werden keine offiziellen Wetterinformationen ausgegeben. Daher werden zur Orientierung Daten des nahegelegenen Flughafens Friedrichshafen dargestellt.

Flugwetterdaten zur Verfügung gestellt von wippich.aero.